sensor_id;sensor_type;location;lat;lon;timestamp;P1;durP1;ratioP1;P2;durP2;ratioP2
58414;SDS011;44210;42.706;18.344;2022-07-09T00:00:22;6.60;;;3.42;;
58414;SDS011;44210;42.706;18.344;2022-07-09T00:02:48;5.55;;;3.72;;
58414;SDS011;44210;42.706;18.344;2022-07-09T00:05:14;7.10;;;3.88;;
58414;SDS011;44210;42.706;18.344;2022-07-09T00:07:40;4.45;;;3.50;;
58414;SDS011;44210;42.706;18.344;2022-07-09T00:10:06;6.07;;;3.42;;
58414;SDS011;44210;42.706;18.344;2022-07-09T00:12:33;4.13;;;3.40;;
58414;SDS011;44210;42.706;18.344;2022-07-09T00:14:59;6.18;;;3.22;;
58414;SDS011;44210;42.706;18.344;2022-07-09T00:17:25;6.15;;;3.28;;
58414;SDS011;44210;42.706;18.344;2022-07-09T00:19:51;9.73;;;3.80;;
58414;SDS011;44210;42.706;18.344;2022-07-09T00:22:17;4.57;;;3.88;;
58414;SDS011;44210;42.706;18.344;2022-07-09T00:24:43;6.45;;;3.75;;
58414;SDS011;44210;42.706;18.344;2022-07-09T00:27:10;4.00;;;3.60;;
58414;SDS011;44210;42.706;18.344;2022-07-09T00:29:36;5.88;;;3.72;;
58414;SDS011;44210;42.706;18.344;2022-07-09T00:32:02;9.52;;;4.18;;
58414;SDS011;44210;42.706;18.344;2022-07-09T00:34:28;5.97;;;3.67;;
58414;SDS011;44210;42.706;18.344;2022-07-09T00:36:54;7.18;;;4.30;;
58414;SDS011;44210;42.706;18.344;2022-07-09T00:39:20;4.60;;;4.15;;
58414;SDS011;44210;42.706;18.344;2022-07-09T00:41:46;4.50;;;4.20;;
58414;SDS011;44210;42.706;18.344;2022-07-09T00:44:12;4.43;;;4.03;;
58414;SDS011;44210;42.706;18.344;2022-07-09T00:46:38;5.80;;;4.28;;
58414;SDS011;44210;42.706;18.344;2022-07-09T00:49:04;5.65;;;4.50;;
58414;SDS011;44210;42.706;18.344;2022-07-09T00:51:31;5.45;;;4.88;;
58414;SDS011;44210;42.706;18.344;2022-07-09T00:53:58;7.88;;;4.40;;
58414;SDS011;44210;42.706;18.344;2022-07-09T00:56:26;6.97;;;4.72;;
58414;SDS011;44210;42.706;18.344;2022-07-09T00:58:53;5.25;;;4.75;;
58414;SDS011;44210;42.706;18.344;2022-07-09T01:01:19;4.90;;;4.40;;
58414;SDS011;44210;42.706;18.344;2022-07-09T01:03:45;8.88;;;4.60;;
58414;SDS011;44210;42.706;18.344;2022-07-09T01:06:11;7.50;;;5.32;;
58414;SDS011;44210;42.706;18.344;2022-07-09T01:08:38;6.20;;;4.82;;
58414;SDS011;44210;42.706;18.344;2022-07-09T01:11:04;11.57;;;4.38;;
58414;SDS011;44210;42.706;18.344;2022-07-09T01:13:30;11.90;;;4.80;;
58414;SDS011;44210;42.706;18.344;2022-07-09T01:15:56;8.55;;;4.95;;
58414;SDS011;44210;42.706;18.344;2022-07-09T01:18:22;5.00;;;4.50;;
58414;SDS011;44210;42.706;18.344;2022-07-09T01:20:48;6.68;;;5.03;;
58414;SDS011;44210;42.706;18.344;2022-07-09T01:23:14;5.80;;;5.30;;
58414;SDS011;44210;42.706;18.344;2022-07-09T01:25:41;6.05;;;5.05;;
58414;SDS011;44210;42.706;18.344;2022-07-09T01:28:10;6.03;;;5.47;;
58414;SDS011;44210;42.706;18.344;2022-07-09T01:30:37;8.38;;;5.60;;
58414;SDS011;44210;42.706;18.344;2022-07-09T01:33:03;7.07;;;6.07;;
58414;SDS011;44210;42.706;18.344;2022-07-09T01:35:29;7.65;;;5.57;;
58414;SDS011;44210;42.706;18.344;2022-07-09T01:37:55;8.55;;;5.00;;
58414;SDS011;44210;42.706;18.344;2022-07-09T01:40:22;6.28;;;5.15;;
58414;SDS011;44210;42.706;18.344;2022-07-09T01:42:49;8.57;;;5.57;;
58414;SDS011;44210;42.706;18.344;2022-07-09T01:45:15;7.55;;;5.25;;
58414;SDS011;44210;42.706;18.344;2022-07-09T01:47:42;6.35;;;5.07;;
58414;SDS011;44210;42.706;18.344;2022-07-09T01:50:08;6.88;;;5.53;;
58414;SDS011;44210;42.706;18.344;2022-07-09T01:52:35;6.90;;;5.60;;
58414;SDS011;44210;42.706;18.344;2022-07-09T01:55:01;6.35;;;5.65;;
58414;SDS011;44210;42.706;18.344;2022-07-09T01:57:28;9.35;;;5.50;;
58414;SDS011;44210;42.706;18.344;2022-07-09T01:59:54;9.02;;;5.28;;
58414;SDS011;44210;42.706;18.344;2022-07-09T02:02:20;5.25;;;4.80;;
58414;SDS011;44210;42.706;18.344;2022-07-09T02:04:46;6.75;;;5.05;;
58414;SDS011;44210;42.706;18.344;2022-07-09T02:07:13;8.52;;;5.30;;
58414;SDS011;44210;42.706;18.344;2022-07-09T02:09:39;5.20;;;4.80;;
58414;SDS011;44210;42.706;18.344;2022-07-09T02:12:06;6.38;;;5.30;;
58414;SDS011;44210;42.706;18.344;2022-07-09T02:14:32;7.57;;;5.40;;
58414;SDS011;44210;42.706;18.344;2022-07-09T02:16:58;5.35;;;4.95;;
58414;SDS011;44210;42.706;18.344;2022-07-09T02:19:24;5.95;;;5.35;;
58414;SDS011;44210;42.706;18.344;2022-07-09T02:21:50;6.97;;;4.72;;
58414;SDS011;44210;42.706;18.344;2022-07-09T02:24:16;6.82;;;4.82;;
58414;SDS011;44210;42.706;18.344;2022-07-09T02:26:42;4.70;;;4.30;;
58414;SDS011;44210;42.706;18.344;2022-07-09T02:29:08;6.43;;;4.45;;
58414;SDS011;44210;42.706;18.344;2022-07-09T02:31:34;8.40;;;4.63;;
58414;SDS011;44210;42.706;18.344;2022-07-09T02:34:00;5.55;;;4.40;;
58414;SDS011;44210;42.706;18.344;2022-07-09T02:36:26;6.35;;;4.63;;
58414;SDS011;44210;42.706;18.344;2022-07-09T02:38:52;6.22;;;4.03;;
58414;SDS011;44210;42.706;18.344;2022-07-09T02:41:18;6.50;;;4.35;;
58414;SDS011;44210;42.706;18.344;2022-07-09T02:43:44;8.80;;;4.70;;
58414;SDS011;44210;42.706;18.344;2022-07-09T02:46:10;7.50;;;4.32;;
58414;SDS011;44210;42.706;18.344;2022-07-09T02:48:37;6.28;;;4.32;;
58414;SDS011;44210;42.706;18.344;2022-07-09T02:51:03;12.25;;;4.50;;
58414;SDS011;44210;42.706;18.344;2022-07-09T02:53:29;5.55;;;4.28;;
58414;SDS011;44210;42.706;18.344;2022-07-09T02:55:55;10.45;;;4.25;;
58414;SDS011;44210;42.706;18.344;2022-07-09T02:58:21;5.88;;;4.80;;
58414;SDS011;44210;42.706;18.344;2022-07-09T03:00:48;7.13;;;4.50;;
58414;SDS011;44210;42.706;18.344;2022-07-09T03:03:14;9.75;;;4.43;;
58414;SDS011;44210;42.706;18.344;2022-07-09T03:05:40;7.60;;;4.47;;
58414;SDS011;44210;42.706;18.344;2022-07-09T03:08:06;5.57;;;3.85;;
58414;SDS011;44210;42.706;18.344;2022-07-09T03:10:33;4.60;;;4.20;;
58414;SDS011;44210;42.706;18.344;2022-07-09T03:12:59;5.68;;;4.57;;
58414;SDS011;44210;42.706;18.344;2022-07-09T03:15:26;5.18;;;4.47;;
58414;SDS011;44210;42.706;18.344;2022-07-09T03:17:52;5.88;;;5.03;;
58414;SDS011;44210;42.706;18.344;2022-07-09T03:20:18;9.32;;;4.55;;
58414;SDS011;44210;42.706;18.344;2022-07-09T03:22:44;4.97;;;4.57;;
58414;SDS011;44210;42.706;18.344;2022-07-09T03:25:10;9.10;;;4.50;;
58414;SDS011;44210;42.706;18.344;2022-07-09T03:27:36;10.13;;;4.70;;
58414;SDS011;44210;42.706;18.344;2022-07-09T03:30:03;6.15;;;4.22;;
58414;SDS011;44210;42.706;18.344;2022-07-09T03:32:29;7.68;;;4.65;;
58414;SDS011;44210;42.706;18.344;2022-07-09T03:34:55;5.50;;;5.00;;
58414;SDS011;44210;42.706;18.344;2022-07-09T03:37:21;5.70;;;4.55;;
58414;SDS011;44210;42.706;18.344;2022-07-09T03:39:48;5.35;;;4.85;;
58414;SDS011;44210;42.706;18.344;2022-07-09T03:42:14;5.55;;;4.68;;
58414;SDS011;44210;42.706;18.344;2022-07-09T03:44:40;5.13;;;4.50;;
58414;SDS011;44210;42.706;18.344;2022-07-09T03:47:06;6.13;;;4.35;;
58414;SDS011;44210;42.706;18.344;2022-07-09T03:49:33;9.45;;;4.93;;
58414;SDS011;44210;42.706;18.344;2022-07-09T03:51:59;5.40;;;4.90;;
58414;SDS011;44210;42.706;18.344;2022-07-09T03:54:25;9.57;;;4.97;;
58414;SDS011;44210;42.706;18.344;2022-07-09T03:56:51;5.50;;;4.85;;
58414;SDS011;44210;42.706;18.344;2022-07-09T03:59:17;5.68;;;4.68;;
58414;SDS011;44210;42.706;18.344;2022-07-09T04:01:44;4.97;;;4.57;;
58414;SDS011;44210;42.706;18.344;2022-07-09T04:04:10;7.25;;;5.07;;
58414;SDS011;44210;42.706;18.344;2022-07-09T04:06:36;5.25;;;4.63;;
58414;SDS011;44210;42.706;18.344;2022-07-09T04:09:03;6.57;;;5.00;;
58414;SDS011;44210;42.706;18.344;2022-07-09T04:11:32;8.07;;;5.00;;
58414;SDS011;44210;42.706;18.344;2022-07-09T04:13:59;5.50;;;4.65;;
58414;SDS011;44210;42.706;18.344;2022-07-09T04:16:25;6.10;;;5.50;;
58414;SDS011;44210;42.706;18.344;2022-07-09T04:18:51;5.78;;;4.90;;
58414;SDS011;44210;42.706;18.344;2022-07-09T04:21:17;8.65;;;4.85;;
58414;SDS011;44210;42.706;18.344;2022-07-09T04:23:46;7.55;;;5.35;;
58414;SDS011;44210;42.706;18.344;2022-07-09T04:26:12;8.60;;;5.38;;
58414;SDS011;44210;42.706;18.344;2022-07-09T04:28:38;6.85;;;5.60;;
58414;SDS011;44210;42.706;18.344;2022-07-09T04:31:04;7.35;;;4.78;;
58414;SDS011;44210;42.706;18.344;2022-07-09T04:33:30;6.55;;;5.00;;
58414;SDS011;44210;42.706;18.344;2022-07-09T04:35:57;8.38;;;5.05;;
58414;SDS011;44210;42.706;18.344;2022-07-09T04:38:23;7.05;;;5.38;;
58414;SDS011;44210;42.706;18.344;2022-07-09T04:40:50;5.25;;;4.75;;
58414;SDS011;44210;42.706;18.344;2022-07-09T04:43:16;5.93;;;5.05;;
58414;SDS011;44210;42.706;18.344;2022-07-09T04:45:42;5.70;;;5.20;;
58414;SDS011;44210;42.706;18.344;2022-07-09T04:48:08;5.22;;;4.72;;
58414;SDS011;44210;42.706;18.344;2022-07-09T04:50:34;5.20;;;4.70;;
58414;SDS011;44210;42.706;18.344;2022-07-09T04:53:00;8.65;;;4.72;;
58414;SDS011;44210;42.706;18.344;2022-07-09T04:55:26;10.27;;;4.75;;
58414;SDS011;44210;42.706;18.344;2022-07-09T04:57:52;6.75;;;4.80;;
58414;SDS011;44210;42.706;18.344;2022-07-09T05:00:18;5.05;;;4.43;;
58414;SDS011;44210;42.706;18.344;2022-07-09T05:02:45;5.93;;;4.32;;
58414;SDS011;44210;42.706;18.344;2022-07-09T05:05:11;5.25;;;4.72;;
58414;SDS011;44210;42.706;18.344;2022-07-09T05:07:38;5.88;;;4.72;;
58414;SDS011;44210;42.706;18.344;2022-07-09T05:10:05;12.30;;;4.68;;
58414;SDS011;44210;42.706;18.344;2022-07-09T05:12:31;5.40;;;4.90;;
58414;SDS011;44210;42.706;18.344;2022-07-09T05:14:57;8.02;;;5.15;;
58414;SDS011;44210;42.706;18.344;2022-07-09T05:17:23;5.90;;;5.30;;
58414;SDS011;44210;42.706;18.344;2022-07-09T05:19:50;7.40;;;5.25;;
58414;SDS011;44210;42.706;18.344;2022-07-09T05:22:16;4.93;;;4.47;;
58414;SDS011;44210;42.706;18.344;2022-07-09T05:24:42;5.72;;;4.72;;
58414;SDS011;44210;42.706;18.344;2022-07-09T05:27:08;4.72;;;4.32;;
58414;SDS011;44210;42.706;18.344;2022-07-09T05:29:35;8.73;;;5.60;;
58414;SDS011;44210;42.706;18.344;2022-07-09T05:32:01;5.45;;;4.75;;
58414;SDS011;44210;42.706;18.344;2022-07-09T05:34:27;5.47;;;4.22;;
58414;SDS011;44210;42.706;18.344;2022-07-09T05:36:54;6.00;;;4.00;;
58414;SDS011;44210;42.706;18.344;2022-07-09T05:39:20;5.00;;;3.92;;
58414;SDS011;44210;42.706;18.344;2022-07-09T05:41:47;7.20;;;4.35;;
58414;SDS011;44210;42.706;18.344;2022-07-09T05:44:13;8.98;;;4.13;;
58414;SDS011;44210;42.706;18.344;2022-07-09T05:46:39;6.45;;;3.95;;
58414;SDS011;44210;42.706;18.344;2022-07-09T05:49:06;4.70;;;4.03;;
58414;SDS011;44210;42.706;18.344;2022-07-09T05:51:32;11.43;;;4.75;;
58414;SDS011;44210;42.706;18.344;2022-07-09T05:53:58;4.45;;;3.83;;
58414;SDS011;44210;42.706;18.344;2022-07-09T05:56:24;3.50;;;3.20;;
58414;SDS011;44210;42.706;18.344;2022-07-09T05:58:50;3.78;;;2.90;;
58414;SDS011;44210;42.706;18.344;2022-07-09T06:01:17;6.13;;;3.35;;
58414;SDS011;44210;42.706;18.344;2022-07-09T06:03:43;7.03;;;3.08;;
58414;SDS011;44210;42.706;18.344;2022-07-09T06:06:09;8.40;;;2.90;;
58414;SDS011;44210;42.706;18.344;2022-07-09T06:08:36;5.25;;;3.20;;
58414;SDS011;44210;42.706;18.344;2022-07-09T06:11:02;4.45;;;3.00;;
58414;SDS011;44210;42.706;18.344;2022-07-09T06:13:28;3.92;;;3.30;;
58414;SDS011;44210;42.706;18.344;2022-07-09T06:15:54;10.57;;;3.53;;
58414;SDS011;44210;42.706;18.344;2022-07-09T06:18:20;6.25;;;3.00;;
58414;SDS011;44210;42.706;18.344;2022-07-09T06:20:47;6.47;;;2.75;;
58414;SDS011;44210;42.706;18.344;2022-07-09T06:23:13;3.10;;;2.83;;
58414;SDS011;44210;42.706;18.344;2022-07-09T06:25:39;3.00;;;2.80;;
58414;SDS011;44210;42.706;18.344;2022-07-09T06:28:06;3.92;;;2.58;;
58414;SDS011;44210;42.706;18.344;2022-07-09T06:30:32;2.53;;;2.30;;
58414;SDS011;44210;42.706;18.344;2022-07-09T06:33:01;3.92;;;2.42;;
58414;SDS011;44210;42.706;18.344;2022-07-09T06:35:27;3.05;;;2.67;;
58414;SDS011;44210;42.706;18.344;2022-07-09T06:37:54;2.40;;;2.20;;
58414;SDS011;44210;42.706;18.344;2022-07-09T06:40:20;4.22;;;2.10;;
58414;SDS011;44210;42.706;18.344;2022-07-09T06:42:46;2.10;;;1.92;;
58414;SDS011;44210;42.706;18.344;2022-07-09T06:45:12;2.10;;;1.77;;
58414;SDS011;44210;42.706;18.344;2022-07-09T06:47:39;2.67;;;1.55;;
58414;SDS011;44210;42.706;18.344;2022-07-09T06:50:06;1.65;;;1.35;;
58414;SDS011;44210;42.706;18.344;2022-07-09T06:52:32;3.88;;;1.63;;
58414;SDS011;44210;42.706;18.344;2022-07-09T06:54:58;1.67;;;1.58;;
58414;SDS011;44210;42.706;18.344;2022-07-09T06:57:24;2.40;;;2.00;;
58414;SDS011;44210;42.706;18.344;2022-07-09T06:59:51;1.75;;;1.63;;
58414;SDS011;44210;42.706;18.344;2022-07-09T07:02:17;2.65;;;1.77;;
58414;SDS011;44210;42.706;18.344;2022-07-09T07:04:43;4.25;;;1.90;;
58414;SDS011;44210;42.706;18.344;2022-07-09T07:07:09;2.58;;;2.13;;
58414;SDS011;44210;42.706;18.344;2022-07-09T07:09:35;1.70;;;1.60;;
58414;SDS011;44210;42.706;18.344;2022-07-09T07:12:01;1.80;;;1.70;;
58414;SDS011;44210;42.706;18.344;2022-07-09T07:14:27;1.80;;;1.70;;
58414;SDS011;44210;42.706;18.344;2022-07-09T07:16:53;3.03;;;2.08;;
58414;SDS011;44210;42.706;18.344;2022-07-09T07:19:20;5.10;;;1.95;;
58414;SDS011;44210;42.706;18.344;2022-07-09T07:21:47;2.65;;;2.20;;
58414;SDS011;44210;42.706;18.344;2022-07-09T07:24:13;2.03;;;1.90;;
58414;SDS011;44210;42.706;18.344;2022-07-09T07:26:39;2.13;;;1.92;;
58414;SDS011;44210;42.706;18.344;2022-07-09T07:29:05;2.22;;;2.13;;
58414;SDS011;44210;42.706;18.344;2022-07-09T07:31:31;2.65;;;2.17;;
58414;SDS011;44210;42.706;18.344;2022-07-09T07:33:58;2.03;;;1.92;;
58414;SDS011;44210;42.706;18.344;2022-07-09T07:36:25;2.28;;;2.08;;
58414;SDS011;44210;42.706;18.344;2022-07-09T07:38:51;2.10;;;1.90;;
58414;SDS011;44210;42.706;18.344;2022-07-09T07:41:18;2.53;;;2.33;;
58414;SDS011;44210;42.706;18.344;2022-07-09T07:43:46;3.10;;;2.47;;
58414;SDS011;44210;42.706;18.344;2022-07-09T07:46:12;3.35;;;2.25;;
58414;SDS011;44210;42.706;18.344;2022-07-09T07:48:38;3.15;;;2.22;;
58414;SDS011;44210;42.706;18.344;2022-07-09T07:51:06;2.50;;;1.80;;
58414;SDS011;44210;42.706;18.344;2022-07-09T07:53:33;2.58;;;2.10;;
58414;SDS011;44210;42.706;18.344;2022-07-09T07:56:02;1.70;;;1.60;;
58414;SDS011;44210;42.706;18.344;2022-07-09T07:58:28;2.13;;;1.77;;
58414;SDS011;44210;42.706;18.344;2022-07-09T08:00:54;3.55;;;1.60;;
58414;SDS011;44210;42.706;18.344;2022-07-09T08:03:21;1.77;;;1.67;;
58414;SDS011;44210;42.706;18.344;2022-07-09T08:05:47;3.28;;;1.60;;
58414;SDS011;44210;42.706;18.344;2022-07-09T08:08:13;3.17;;;1.70;;
58414;SDS011;44210;42.706;18.344;2022-07-09T08:10:39;2.75;;;1.80;;
58414;SDS011;44210;42.706;18.344;2022-07-09T08:13:05;2.85;;;2.38;;
58414;SDS011;44210;42.706;18.344;2022-07-09T08:15:31;2.08;;;1.90;;
58414;SDS011;44210;42.706;18.344;2022-07-09T08:17:57;2.15;;;1.67;;
58414;SDS011;44210;42.706;18.344;2022-07-09T08:20:23;1.40;;;1.30;;
58414;SDS011;44210;42.706;18.344;2022-07-09T08:22:49;1.50;;;1.40;;
58414;SDS011;44210;42.706;18.344;2022-07-09T08:25:16;1.50;;;1.40;;
58414;SDS011;44210;42.706;18.344;2022-07-09T08:27:42;1.13;;;1.10;;
58414;SDS011;44210;42.706;18.344;2022-07-09T08:30:08;1.65;;;1.23;;
58414;SDS011;44210;42.706;18.344;2022-07-09T08:32:35;1.50;;;1.40;;
58414;SDS011;44210;42.706;18.344;2022-07-09T08:35:02;1.45;;;1.20;;
58414;SDS011;44210;42.706;18.344;2022-07-09T08:37:28;3.20;;;1.42;;
58414;SDS011;44210;42.706;18.344;2022-07-09T08:39:54;1.30;;;1.20;;
58414;SDS011;44210;42.706;18.344;2022-07-09T08:42:20;1.23;;;1.13;;
58414;SDS011;44210;42.706;18.344;2022-07-09T08:44:47;1.40;;;1.25;;
58414;SDS011;44210;42.706;18.344;2022-07-09T08:47:14;4.55;;;1.30;;
58414;SDS011;44210;42.706;18.344;2022-07-09T08:49:43;1.13;;;1.13;;
58414;SDS011;44210;42.706;18.344;2022-07-09T08:52:12;3.47;;;1.38;;
58414;SDS011;44210;42.706;18.344;2022-07-09T08:54:38;1.10;;;1.00;;
58414;SDS011;44210;42.706;18.344;2022-07-09T08:57:07;1.98;;;1.20;;
58414;SDS011;44210;42.706;18.344;2022-07-09T08:59:33;1.30;;;1.20;;
58414;SDS011;44210;42.706;18.344;2022-07-09T09:02:05;1.40;;;1.30;;
58414;SDS011;44210;42.706;18.344;2022-07-09T09:04:32;1.25;;;1.15;;
58414;SDS011;44210;42.706;18.344;2022-07-09T09:06:59;1.40;;;1.30;;
58414;SDS011;44210;42.706;18.344;2022-07-09T09:09:26;2.95;;;1.38;;
58414;SDS011;44210;42.706;18.344;2022-07-09T09:11:52;2.00;;;1.80;;
58414;SDS011;44210;42.706;18.344;2022-07-09T09:14:22;2.35;;;1.50;;
58414;SDS011;44210;42.706;18.344;2022-07-09T09:16:48;1.48;;;1.30;;
58414;SDS011;44210;42.706;18.344;2022-07-09T09:19:14;1.35;;;1.30;;
58414;SDS011;44210;42.706;18.344;2022-07-09T09:21:40;4.18;;;1.50;;
58414;SDS011;44210;42.706;18.344;2022-07-09T09:24:06;1.73;;;1.58;;
58414;SDS011;44210;42.706;18.344;2022-07-09T09:26:32;2.67;;;1.35;;
58414;SDS011;44210;42.706;18.344;2022-07-09T09:29:01;1.13;;;1.13;;
58414;SDS011;44210;42.706;18.344;2022-07-09T09:31:34;2.50;;;1.10;;
58414;SDS011;44210;42.706;18.344;2022-07-09T09:36:33;1.60;;;1.20;;
58414;SDS011;44210;42.706;18.344;2022-07-09T09:41:35;1.80;;;1.52;;
58414;SDS011;44210;42.706;18.344;2022-07-09T09:44:11;3.92;;;1.70;;
58414;SDS011;44210;42.706;18.344;2022-07-09T09:46:37;2.72;;;1.75;;
58414;SDS011;44210;42.706;18.344;2022-07-09T09:49:05;3.42;;;1.52;;
58414;SDS011;44210;42.706;18.344;2022-07-09T09:51:36;1.90;;;1.73;;
58414;SDS011;44210;42.706;18.344;2022-07-09T09:54:03;3.45;;;1.50;;
58414;SDS011;44210;42.706;18.344;2022-07-09T09:56:30;2.10;;;1.90;;
58414;SDS011;44210;42.706;18.344;2022-07-09T09:58:58;2.55;;;1.67;;
58414;SDS011;44210;42.706;18.344;2022-07-09T10:01:25;2.40;;;1.60;;
58414;SDS011;44210;42.706;18.344;2022-07-09T10:03:51;1.60;;;1.50;;
58414;SDS011;44210;42.706;18.344;2022-07-09T10:06:18;2.28;;;1.75;;
58414;SDS011;44210;42.706;18.344;2022-07-09T10:08:44;1.48;;;1.38;;
58414;SDS011;44210;42.706;18.344;2022-07-09T10:11:10;2.28;;;1.45;;
58414;SDS011;44210;42.706;18.344;2022-07-09T10:13:49;1.90;;;1.63;;
58414;SDS011;44210;42.706;18.344;2022-07-09T10:16:15;2.33;;;1.83;;
58414;SDS011;44210;42.706;18.344;2022-07-09T10:18:54;4.85;;;1.63;;
58414;SDS011;44210;42.706;18.344;2022-07-09T10:21:34;2.88;;;1.40;;
58414;SDS011;44210;42.706;18.344;2022-07-09T10:24:00;3.03;;;1.40;;
58414;SDS011;44210;42.706;18.344;2022-07-09T10:26:36;1.52;;;1.35;;
58414;SDS011;44210;42.706;18.344;2022-07-09T10:29:16;2.88;;;1.58;;
58414;SDS011;44210;42.706;18.344;2022-07-09T10:31:43;3.45;;;1.45;;
58414;SDS011;44210;42.706;18.344;2022-07-09T10:34:09;3.65;;;1.40;;
58414;SDS011;44210;42.706;18.344;2022-07-09T10:36:40;3.92;;;1.42;;
58414;SDS011;44210;42.706;18.344;2022-07-09T10:39:12;3.28;;;1.63;;
58414;SDS011;44210;42.706;18.344;2022-07-09T10:41:38;1.48;;;1.38;;
58414;SDS011;44210;42.706;18.344;2022-07-09T10:44:06;2.90;;;1.20;;
58414;SDS011;44210;42.706;18.344;2022-07-09T10:46:32;2.92;;;1.40;;
58414;SDS011;44210;42.706;18.344;2022-07-09T10:48:58;1.30;;;1.20;;
58414;SDS011;44210;42.706;18.344;2022-07-09T10:51:24;2.20;;;1.60;;
58414;SDS011;44210;42.706;18.344;2022-07-09T10:53:50;2.55;;;1.45;;
58414;SDS011;44210;42.706;18.344;2022-07-09T10:56:17;3.67;;;1.33;;
58414;SDS011;44210;42.706;18.344;2022-07-09T10:58:47;1.73;;;1.20;;
58414;SDS011;44210;42.706;18.344;2022-07-09T11:01:18;4.93;;;1.63;;
58414;SDS011;44210;42.706;18.344;2022-07-09T11:03:48;1.73;;;1.40;;
58414;SDS011;44210;42.706;18.344;2022-07-09T11:06:15;1.65;;;1.52;;
58414;SDS011;44210;42.706;18.344;2022-07-09T11:08:41;1.30;;;1.20;;
58414;SDS011;44210;42.706;18.344;2022-07-09T11:11:07;2.10;;;1.42;;
58414;SDS011;44210;42.706;18.344;2022-07-09T11:13:34;1.65;;;1.42;;
58414;SDS011;44210;42.706;18.344;2022-07-09T11:16:00;2.00;;;1.45;;
58414;SDS011;44210;42.706;18.344;2022-07-09T11:18:27;1.38;;;1.27;;
58414;SDS011;44210;42.706;18.344;2022-07-09T11:20:53;1.55;;;1.30;;
58414;SDS011;44210;42.706;18.344;2022-07-09T11:23:19;7.90;;;1.48;;
58414;SDS011;44210;42.706;18.344;2022-07-09T11:25:46;1.50;;;1.30;;
58414;SDS011;44210;42.706;18.344;2022-07-09T11:28:18;1.83;;;1.27;;
58414;SDS011;44210;42.706;18.344;2022-07-09T11:30:45;1.42;;;1.33;;
58414;SDS011;44210;42.706;18.344;2022-07-09T11:33:12;1.67;;;1.27;;
58414;SDS011;44210;42.706;18.344;2022-07-09T11:35:38;1.10;;;1.10;;
58414;SDS011;44210;42.706;18.344;2022-07-09T11:38:04;1.50;;;1.40;;
58414;SDS011;44210;42.706;18.344;2022-07-09T11:40:32;1.20;;;1.00;;
58414;SDS011;44210;42.706;18.344;2022-07-09T11:42:58;1.85;;;1.63;;
58414;SDS011;44210;42.706;18.344;2022-07-09T11:45:27;2.85;;;1.38;;
58414;SDS011;44210;42.706;18.344;2022-07-09T11:48:06;1.30;;;1.20;;
58414;SDS011;44210;42.706;18.344;2022-07-09T11:50:33;1.77;;;1.30;;
58414;SDS011;44210;42.706;18.344;2022-07-09T11:53:07;1.40;;;1.30;;
58414;SDS011;44210;42.706;18.344;2022-07-09T11:55:44;3.55;;;1.50;;
58414;SDS011;44210;42.706;18.344;2022-07-09T11:58:10;4.00;;;1.85;;
58414;SDS011;44210;42.706;18.344;2022-07-09T12:00:40;1.60;;;1.40;;
58414;SDS011;44210;42.706;18.344;2022-07-09T12:03:06;2.88;;;1.70;;
58414;SDS011;44210;42.706;18.344;2022-07-09T12:05:33;3.92;;;1.60;;
58414;SDS011;44210;42.706;18.344;2022-07-09T12:08:04;1.73;;;1.55;;
58414;SDS011;44210;42.706;18.344;2022-07-09T12:10:31;1.67;;;1.33;;
58414;SDS011;44210;42.706;18.344;2022-07-09T12:12:58;1.50;;;1.40;;
58414;SDS011;44210;42.706;18.344;2022-07-09T12:15:24;1.48;;;1.38;;
58414;SDS011;44210;42.706;18.344;2022-07-09T12:17:51;1.80;;;1.48;;
58414;SDS011;44210;42.706;18.344;2022-07-09T12:20:19;3.53;;;1.30;;
58414;SDS011;44210;42.706;18.344;2022-07-09T12:22:45;2.33;;;1.83;;
58414;SDS011;44210;42.706;18.344;2022-07-09T12:25:11;1.70;;;1.60;;
58414;SDS011;44210;42.706;18.344;2022-07-09T12:27:38;1.98;;;1.13;;
58414;SDS011;44210;42.706;18.344;2022-07-09T12:30:04;1.63;;;1.52;;
58414;SDS011;44210;42.706;18.344;2022-07-09T12:32:30;1.83;;;1.73;;
58414;SDS011;44210;42.706;18.344;2022-07-09T12:34:56;1.63;;;1.52;;
58414;SDS011;44210;42.706;18.344;2022-07-09T12:37:22;1.63;;;1.52;;
58414;SDS011;44210;42.706;18.344;2022-07-09T12:39:49;1.70;;;1.60;;
58414;SDS011;44210;42.706;18.344;2022-07-09T12:42:15;1.90;;;1.80;;
58414;SDS011;44210;42.706;18.344;2022-07-09T12:44:43;1.85;;;1.60;;
58414;SDS011;44210;42.706;18.344;2022-07-09T12:47:09;3.65;;;1.42;;
58414;SDS011;44210;42.706;18.344;2022-07-09T12:49:35;3.47;;;1.70;;
58414;SDS011;44210;42.706;18.344;2022-07-09T12:52:01;2.22;;;1.83;;
58414;SDS011;44210;42.706;18.344;2022-07-09T12:54:27;2.30;;;1.70;;
58414;SDS011;44210;42.706;18.344;2022-07-09T12:56:53;3.00;;;2.17;;
58414;SDS011;44210;42.706;18.344;2022-07-09T12:59:20;1.50;;;1.40;;
58414;SDS011;44210;42.706;18.344;2022-07-09T13:01:46;1.60;;;1.50;;
58414;SDS011;44210;42.706;18.344;2022-07-09T13:04:12;1.70;;;1.60;;
58414;SDS011;44210;42.706;18.344;2022-07-09T13:06:39;2.17;;;1.85;;
58414;SDS011;44210;42.706;18.344;2022-07-09T13:09:06;1.70;;;1.60;;
58414;SDS011;44210;42.706;18.344;2022-07-09T13:11:33;2.10;;;1.65;;
58414;SDS011;44210;42.706;18.344;2022-07-09T13:13:59;1.70;;;1.60;;
58414;SDS011;44210;42.706;18.344;2022-07-09T13:16:25;2.47;;;1.60;;
58414;SDS011;44210;42.706;18.344;2022-07-09T13:18:52;3.80;;;2.08;;
58414;SDS011;44210;42.706;18.344;2022-07-09T13:21:18;4.15;;;1.90;;
58414;SDS011;44210;42.706;18.344;2022-07-09T13:23:45;3.70;;;1.42;;
58414;SDS011;44210;42.706;18.344;2022-07-09T13:26:11;2.30;;;1.60;;
58414;SDS011;44210;42.706;18.344;2022-07-09T13:28:37;3.45;;;1.65;;
58414;SDS011;44210;42.706;18.344;2022-07-09T13:31:03;1.60;;;1.50;;
58414;SDS011;44210;42.706;18.344;2022-07-09T13:33:31;1.60;;;1.50;;
58414;SDS011;44210;42.706;18.344;2022-07-09T13:35:57;2.45;;;1.48;;
58414;SDS011;44210;42.706;18.344;2022-07-09T13:38:23;3.47;;;1.35;;
58414;SDS011;44210;42.706;18.344;2022-07-09T13:40:49;2.60;;;1.90;;
58414;SDS011;44210;42.706;18.344;2022-07-09T13:43:15;1.63;;;1.52;;
58414;SDS011;44210;42.706;18.344;2022-07-09T13:45:41;1.70;;;1.60;;
58414;SDS011;44210;42.706;18.344;2022-07-09T13:48:08;1.80;;;1.40;;
58414;SDS011;44210;42.706;18.344;2022-07-09T13:50:34;1.92;;;1.75;;
58414;SDS011;44210;42.706;18.344;2022-07-09T13:53:01;29.15;;;3.33;;
58414;SDS011;44210;42.706;18.344;2022-07-09T13:55:28;2.75;;;1.42;;
58414;SDS011;44210;42.706;18.344;2022-07-09T13:57:54;1.60;;;1.50;;
58414;SDS011;44210;42.706;18.344;2022-07-09T14:00:20;1.50;;;1.40;;
58414;SDS011;44210;42.706;18.344;2022-07-09T14:02:47;2.00;;;1.70;;
58414;SDS011;44210;42.706;18.344;2022-07-09T14:05:13;2.45;;;1.50;;
58414;SDS011;44210;42.706;18.344;2022-07-09T14:07:39;2.05;;;1.65;;
58414;SDS011;44210;42.706;18.344;2022-07-09T14:10:05;2.42;;;1.60;;
58414;SDS011;44210;42.706;18.344;2022-07-09T14:12:32;2.60;;;1.58;;
58414;SDS011;44210;42.706;18.344;2022-07-09T14:14:58;1.85;;;1.75;;
58414;SDS011;44210;42.706;18.344;2022-07-09T14:17:24;4.68;;;2.05;;
58414;SDS011;44210;42.706;18.344;2022-07-09T14:19:51;2.08;;;1.40;;
58414;SDS011;44210;42.706;18.344;2022-07-09T14:22:18;4.18;;;1.70;;
58414;SDS011;44210;42.706;18.344;2022-07-09T14:24:44;2.20;;;1.85;;
58414;SDS011;44210;42.706;18.344;2022-07-09T14:27:10;2.05;;;1.60;;
58414;SDS011;44210;42.706;18.344;2022-07-09T14:29:37;1.50;;;1.40;;
58414;SDS011;44210;42.706;18.344;2022-07-09T14:32:03;1.85;;;1.67;;
58414;SDS011;44210;42.706;18.344;2022-07-09T14:34:29;3.83;;;1.63;;